sensor_id;sensor_type;location;lat;lon;timestamp;P1;durP1;ratioP1;P2;durP2;ratioP2
26191;SDS011;13935;55.672;37.764;2022-11-10T00:01:06;22.10;;;15.73;;
26191;SDS011;13935;55.672;37.764;2022-11-10T00:02:28;21.27;;;15.27;;
26191;SDS011;13935;55.672;37.764;2022-11-10T00:03:49;23.27;;;16.42;;
26191;SDS011;13935;55.672;37.764;2022-11-10T00:05:13;23.63;;;15.77;;
26191;SDS011;13935;55.672;37.764;2022-11-10T00:06:35;24.10;;;15.52;;
26191;SDS011;13935;55.672;37.764;2022-11-10T00:07:56;25.80;;;16.25;;
26191;SDS011;13935;55.672;37.764;2022-11-10T00:09:17;22.17;;;16.33;;
26191;SDS011;13935;55.672;37.764;2022-11-10T00:10:40;26.60;;;17.30;;
26191;SDS011;13935;55.672;37.764;2022-11-10T00:12:21;24.90;;;15.88;;
26191;SDS011;13935;55.672;37.764;2022-11-10T00:13:41;26.55;;;17.30;;
26191;SDS011;13935;55.672;37.764;2022-11-10T00:15:22;26.92;;;17.05;;
26191;SDS011;13935;55.672;37.764;2022-11-10T00:17:01;25.23;;;16.95;;
26191;SDS011;13935;55.672;37.764;2022-11-10T00:18:23;27.73;;;16.48;;
26191;SDS011;13935;55.672;37.764;2022-11-10T00:19:44;29.20;;;17.60;;
26191;SDS011;13935;55.672;37.764;2022-11-10T00:21:05;26.05;;;17.42;;
26191;SDS011;13935;55.672;37.764;2022-11-10T00:22:27;25.20;;;16.88;;
26191;SDS011;13935;55.672;37.764;2022-11-10T00:23:50;25.88;;;17.05;;
26191;SDS011;13935;55.672;37.764;2022-11-10T00:25:11;24.35;;;16.67;;
26191;SDS011;13935;55.672;37.764;2022-11-10T00:26:33;28.83;;;17.55;;
26191;SDS011;13935;55.672;37.764;2022-11-10T00:27:56;24.67;;;16.10;;
26191;SDS011;13935;55.672;37.764;2022-11-10T00:29:17;23.70;;;16.60;;
26191;SDS011;13935;55.672;37.764;2022-11-10T00:30:38;25.48;;;17.10;;
26191;SDS011;13935;55.672;37.764;2022-11-10T00:32:04;25.20;;;17.52;;
26191;SDS011;13935;55.672;37.764;2022-11-10T00:33:25;26.17;;;17.23;;
26191;SDS011;13935;55.672;37.764;2022-11-10T00:34:45;25.25;;;17.45;;
26191;SDS011;13935;55.672;37.764;2022-11-10T00:36:08;24.48;;;17.08;;
26191;SDS011;13935;55.672;37.764;2022-11-10T00:37:31;25.70;;;17.45;;
26191;SDS011;13935;55.672;37.764;2022-11-10T00:38:53;24.98;;;16.42;;
26191;SDS011;13935;55.672;37.764;2022-11-10T00:40:13;24.98;;;17.80;;
26191;SDS011;13935;55.672;37.764;2022-11-10T00:41:35;26.10;;;17.15;;
26191;SDS011;13935;55.672;37.764;2022-11-10T00:42:55;25.50;;;17.05;;
26191;SDS011;13935;55.672;37.764;2022-11-10T00:44:19;26.42;;;17.73;;
26191;SDS011;13935;55.672;37.764;2022-11-10T00:45:41;26.50;;;17.98;;
26191;SDS011;13935;55.672;37.764;2022-11-10T00:47:06;30.67;;;17.15;;
26191;SDS011;13935;55.672;37.764;2022-11-10T00:48:27;23.92;;;17.00;;
26191;SDS011;13935;55.672;37.764;2022-11-10T00:49:49;25.75;;;17.25;;
26191;SDS011;13935;55.672;37.764;2022-11-10T00:51:28;27.48;;;16.67;;
26191;SDS011;13935;55.672;37.764;2022-11-10T00:52:50;26.00;;;17.52;;
26191;SDS011;13935;55.672;37.764;2022-11-10T00:54:11;26.88;;;18.20;;
26191;SDS011;13935;55.672;37.764;2022-11-10T00:55:35;27.17;;;17.95;;
26191;SDS011;13935;55.672;37.764;2022-11-10T00:57:00;28.02;;;17.98;;
26191;SDS011;13935;55.672;37.764;2022-11-10T00:58:22;25.63;;;17.42;;
26191;SDS011;13935;55.672;37.764;2022-11-10T00:59:44;29.33;;;18.52;;
26191;SDS011;13935;55.672;37.764;2022-11-10T01:01:05;27.23;;;17.80;;
26191;SDS011;13935;55.672;37.764;2022-11-10T01:02:27;25.58;;;16.70;;
26191;SDS011;13935;55.672;37.764;2022-11-10T01:03:48;24.00;;;17.02;;
26191;SDS011;13935;55.672;37.764;2022-11-10T01:05:10;25.48;;;17.70;;
26191;SDS011;13935;55.672;37.764;2022-11-10T01:06:31;26.25;;;17.92;;
26191;SDS011;13935;55.672;37.764;2022-11-10T01:07:55;28.77;;;18.60;;
26191;SDS011;13935;55.672;37.764;2022-11-10T01:09:19;28.23;;;18.95;;
26191;SDS011;13935;55.672;37.764;2022-11-10T01:10:40;31.60;;;18.02;;
26191;SDS011;13935;55.672;37.764;2022-11-10T01:12:00;26.23;;;18.45;;
26191;SDS011;13935;55.672;37.764;2022-11-10T01:13:21;26.90;;;17.95;;
26191;SDS011;13935;55.672;37.764;2022-11-10T01:14:42;27.08;;;17.85;;
26191;SDS011;13935;55.672;37.764;2022-11-10T01:16:11;29.40;;;17.52;;
26191;SDS011;13935;55.672;37.764;2022-11-10T01:17:36;27.67;;;17.45;;
26191;SDS011;13935;55.672;37.764;2022-11-10T01:18:58;28.90;;;18.90;;
26191;SDS011;13935;55.672;37.764;2022-11-10T01:20:20;27.08;;;18.33;;
26191;SDS011;13935;55.672;37.764;2022-11-10T01:21:43;31.27;;;19.40;;
26191;SDS011;13935;55.672;37.764;2022-11-10T01:23:04;29.02;;;18.63;;
26191;SDS011;13935;55.672;37.764;2022-11-10T01:24:25;26.50;;;18.40;;
26191;SDS011;13935;55.672;37.764;2022-11-10T01:25:46;27.70;;;19.00;;
26191;SDS011;13935;55.672;37.764;2022-11-10T01:27:08;27.50;;;18.13;;
26191;SDS011;13935;55.672;37.764;2022-11-10T01:28:28;26.55;;;17.70;;
26191;SDS011;13935;55.672;37.764;2022-11-10T01:29:52;25.48;;;18.85;;
26191;SDS011;13935;55.672;37.764;2022-11-10T01:31:20;28.05;;;18.40;;
26191;SDS011;13935;55.672;37.764;2022-11-10T01:32:41;28.92;;;18.05;;
26191;SDS011;13935;55.672;37.764;2022-11-10T01:34:02;27.52;;;17.88;;
26191;SDS011;13935;55.672;37.764;2022-11-10T01:35:23;29.85;;;19.67;;
26191;SDS011;13935;55.672;37.764;2022-11-10T01:36:44;25.83;;;17.52;;
26191;SDS011;13935;55.672;37.764;2022-11-10T01:38:08;26.50;;;18.75;;
26191;SDS011;13935;55.672;37.764;2022-11-10T01:39:31;27.50;;;18.23;;
26191;SDS011;13935;55.672;37.764;2022-11-10T01:40:52;28.88;;;19.45;;
26191;SDS011;13935;55.672;37.764;2022-11-10T01:42:13;26.15;;;18.02;;
26191;SDS011;13935;55.672;37.764;2022-11-10T01:43:33;28.42;;;18.60;;
26191;SDS011;13935;55.672;37.764;2022-11-10T01:47:03;27.47;;;17.57;;
26191;SDS011;13935;55.672;37.764;2022-11-10T01:48:29;28.17;;;18.58;;
26191;SDS011;13935;55.672;37.764;2022-11-10T01:49:56;29.42;;;19.08;;
26191;SDS011;13935;55.672;37.764;2022-11-10T01:51:19;29.75;;;19.38;;
26191;SDS011;13935;55.672;37.764;2022-11-10T01:52:41;30.67;;;20.00;;
26191;SDS011;13935;55.672;37.764;2022-11-10T01:54:12;27.48;;;18.50;;
26191;SDS011;13935;55.672;37.764;2022-11-10T01:55:41;30.52;;;18.77;;
26191;SDS011;13935;55.672;37.764;2022-11-10T01:57:08;26.50;;;18.48;;
26191;SDS011;13935;55.672;37.764;2022-11-10T01:58:31;28.90;;;19.33;;
26191;SDS011;13935;55.672;37.764;2022-11-10T01:59:59;27.60;;;19.10;;
26191;SDS011;13935;55.672;37.764;2022-11-10T02:01:43;29.13;;;19.30;;
26191;SDS011;13935;55.672;37.764;2022-11-10T02:04:39;27.85;;;19.08;;
26191;SDS011;13935;55.672;37.764;2022-11-10T02:06:01;29.20;;;19.23;;
26191;SDS011;13935;55.672;37.764;2022-11-10T02:07:26;27.33;;;18.30;;
26191;SDS011;13935;55.672;37.764;2022-11-10T02:08:47;27.35;;;19.50;;
26191;SDS011;13935;55.672;37.764;2022-11-10T02:10:16;28.50;;;19.02;;
26191;SDS011;13935;55.672;37.764;2022-11-10T02:13:01;27.67;;;18.88;;
26191;SDS011;13935;55.672;37.764;2022-11-10T02:14:22;26.38;;;18.80;;
26191;SDS011;13935;55.672;37.764;2022-11-10T02:15:44;27.85;;;19.00;;
26191;SDS011;13935;55.672;37.764;2022-11-10T02:17:05;27.65;;;19.05;;
26191;SDS011;13935;55.672;37.764;2022-11-10T02:18:27;29.00;;;19.10;;
26191;SDS011;13935;55.672;37.764;2022-11-10T02:19:49;30.85;;;18.90;;
26191;SDS011;13935;55.672;37.764;2022-11-10T02:21:11;28.77;;;19.25;;
26191;SDS011;13935;55.672;37.764;2022-11-10T02:22:35;29.70;;;19.08;;
26191;SDS011;13935;55.672;37.764;2022-11-10T02:23:56;31.08;;;20.88;;
26191;SDS011;13935;55.672;37.764;2022-11-10T02:25:19;30.42;;;19.65;;
26191;SDS011;13935;55.672;37.764;2022-11-10T02:26:49;30.70;;;19.95;;
26191;SDS011;13935;55.672;37.764;2022-11-10T02:28:13;30.08;;;19.17;;
26191;SDS011;13935;55.672;37.764;2022-11-10T02:29:34;28.10;;;19.70;;
26191;SDS011;13935;55.672;37.764;2022-11-10T02:30:55;28.98;;;19.70;;
26191;SDS011;13935;55.672;37.764;2022-11-10T02:32:16;30.00;;;20.08;;
26191;SDS011;13935;55.672;37.764;2022-11-10T02:33:37;31.63;;;20.05;;
26191;SDS011;13935;55.672;37.764;2022-11-10T02:34:57;31.23;;;19.38;;
26191;SDS011;13935;55.672;37.764;2022-11-10T02:36:18;30.27;;;19.00;;
26191;SDS011;13935;55.672;37.764;2022-11-10T02:37:38;28.35;;;19.63;;
26191;SDS011;13935;55.672;37.764;2022-11-10T02:38:59;29.77;;;19.63;;
26191;SDS011;13935;55.672;37.764;2022-11-10T02:40:20;31.60;;;20.20;;
26191;SDS011;13935;55.672;37.764;2022-11-10T02:41:41;26.98;;;19.45;;
26191;SDS011;13935;55.672;37.764;2022-11-10T02:43:04;30.30;;;19.60;;
26191;SDS011;13935;55.672;37.764;2022-11-10T02:44:28;27.75;;;18.92;;
26191;SDS011;13935;55.672;37.764;2022-11-10T02:45:51;28.45;;;18.77;;
26191;SDS011;13935;55.672;37.764;2022-11-10T02:47:17;30.67;;;19.50;;
26191;SDS011;13935;55.672;37.764;2022-11-10T02:48:37;26.23;;;18.77;;
26191;SDS011;13935;55.672;37.764;2022-11-10T02:49:59;29.33;;;19.20;;
26191;SDS011;13935;55.672;37.764;2022-11-10T02:51:20;30.92;;;20.13;;
26191;SDS011;13935;55.672;37.764;2022-11-10T02:52:41;29.40;;;19.48;;
26191;SDS011;13935;55.672;37.764;2022-11-10T02:54:01;31.17;;;19.25;;
26191;SDS011;13935;55.672;37.764;2022-11-10T02:55:22;27.38;;;18.75;;
26191;SDS011;13935;55.672;37.764;2022-11-10T02:56:46;27.83;;;19.15;;
26191;SDS011;13935;55.672;37.764;2022-11-10T02:58:06;25.45;;;18.85;;
26191;SDS011;13935;55.672;37.764;2022-11-10T02:59:27;26.70;;;18.83;;
26191;SDS011;13935;55.672;37.764;2022-11-10T03:00:48;29.67;;;19.27;;
26191;SDS011;13935;55.672;37.764;2022-11-10T03:02:10;32.08;;;19.63;;
26191;SDS011;13935;55.672;37.764;2022-11-10T03:03:32;28.23;;;18.75;;
26191;SDS011;13935;55.672;37.764;2022-11-10T03:04:54;29.08;;;19.55;;
26191;SDS011;13935;55.672;37.764;2022-11-10T03:06:15;28.10;;;18.58;;
26191;SDS011;13935;55.672;37.764;2022-11-10T03:07:36;26.77;;;18.60;;
26191;SDS011;13935;55.672;37.764;2022-11-10T03:08:56;27.25;;;18.30;;
26191;SDS011;13935;55.672;37.764;2022-11-10T03:10:17;28.67;;;19.10;;
26191;SDS011;13935;55.672;37.764;2022-11-10T03:11:38;30.77;;;19.08;;
26191;SDS011;13935;55.672;37.764;2022-11-10T03:12:59;29.02;;;19.40;;
26191;SDS011;13935;55.672;37.764;2022-11-10T03:14:21;28.70;;;18.88;;
26191;SDS011;13935;55.672;37.764;2022-11-10T03:15:41;28.55;;;18.85;;
26191;SDS011;13935;55.672;37.764;2022-11-10T03:17:02;28.70;;;19.17;;
26191;SDS011;13935;55.672;37.764;2022-11-10T03:18:23;26.30;;;18.15;;
26191;SDS011;13935;55.672;37.764;2022-11-10T03:19:44;28.38;;;20.27;;
26191;SDS011;13935;55.672;37.764;2022-11-10T03:21:05;28.83;;;19.05;;
26191;SDS011;13935;55.672;37.764;2022-11-10T03:22:43;28.27;;;19.20;;
26191;SDS011;13935;55.672;37.764;2022-11-10T03:24:05;29.52;;;19.80;;
26191;SDS011;13935;55.672;37.764;2022-11-10T03:25:25;31.08;;;19.50;;
26191;SDS011;13935;55.672;37.764;2022-11-10T03:26:46;29.50;;;19.58;;
26191;SDS011;13935;55.672;37.764;2022-11-10T03:28:07;29.52;;;19.92;;
26191;SDS011;13935;55.672;37.764;2022-11-10T03:29:28;28.00;;;18.98;;
26191;SDS011;13935;55.672;37.764;2022-11-10T03:30:50;30.40;;;19.27;;
26191;SDS011;13935;55.672;37.764;2022-11-10T03:32:10;29.30;;;19.08;;
26191;SDS011;13935;55.672;37.764;2022-11-10T03:33:31;29.13;;;19.20;;
26191;SDS011;13935;55.672;37.764;2022-11-10T03:34:52;27.48;;;18.75;;
26191;SDS011;13935;55.672;37.764;2022-11-10T03:36:14;30.90;;;19.83;;
26191;SDS011;13935;55.672;37.764;2022-11-10T03:37:35;27.75;;;18.77;;
26191;SDS011;13935;55.672;37.764;2022-11-10T03:38:57;32.15;;;19.30;;
26191;SDS011;13935;55.672;37.764;2022-11-10T03:40:19;28.63;;;18.83;;
26191;SDS011;13935;55.672;37.764;2022-11-10T03:41:41;29.00;;;18.70;;
26191;SDS011;13935;55.672;37.764;2022-11-10T03:43:02;27.10;;;18.90;;
26191;SDS011;13935;55.672;37.764;2022-11-10T03:44:23;28.50;;;19.08;;
26191;SDS011;13935;55.672;37.764;2022-11-10T03:45:44;26.55;;;19.02;;
26191;SDS011;13935;55.672;37.764;2022-11-10T03:47:05;26.85;;;19.10;;
26191;SDS011;13935;55.672;37.764;2022-11-10T03:48:26;31.30;;;19.55;;
26191;SDS011;13935;55.672;37.764;2022-11-10T03:49:46;30.67;;;18.98;;
26191;SDS011;13935;55.672;37.764;2022-11-10T03:51:07;28.70;;;19.02;;
26191;SDS011;13935;55.672;37.764;2022-11-10T03:52:28;30.33;;;18.38;;
26191;SDS011;13935;55.672;37.764;2022-11-10T03:53:49;29.05;;;19.40;;
26191;SDS011;13935;55.672;37.764;2022-11-10T03:55:11;32.13;;;19.80;;
26191;SDS011;13935;55.672;37.764;2022-11-10T03:56:33;28.33;;;19.15;;
26191;SDS011;13935;55.672;37.764;2022-11-10T03:57:54;27.48;;;18.80;;
26191;SDS011;13935;55.672;37.764;2022-11-10T03:59:14;28.50;;;19.42;;
26191;SDS011;13935;55.672;37.764;2022-11-10T04:00:34;27.10;;;18.40;;
26191;SDS011;13935;55.672;37.764;2022-11-10T04:01:55;26.02;;;18.80;;
26191;SDS011;13935;55.672;37.764;2022-11-10T04:03:17;27.88;;;19.35;;
26191;SDS011;13935;55.672;37.764;2022-11-10T04:04:38;30.50;;;19.15;;
26191;SDS011;13935;55.672;37.764;2022-11-10T04:06:17;29.85;;;19.17;;
26191;SDS011;13935;55.672;37.764;2022-11-10T04:08:16;27.55;;;18.58;;
26191;SDS011;13935;55.672;37.764;2022-11-10T04:09:56;29.23;;;19.40;;
26191;SDS011;13935;55.672;37.764;2022-11-10T04:11:17;28.70;;;18.58;;
26191;SDS011;13935;55.672;37.764;2022-11-10T04:12:58;27.83;;;19.10;;
26191;SDS011;13935;55.672;37.764;2022-11-10T04:14:37;28.80;;;19.60;;
26191;SDS011;13935;55.672;37.764;2022-11-10T04:16:16;28.75;;;18.98;;
26191;SDS011;13935;55.672;37.764;2022-11-10T04:17:37;30.73;;;19.50;;
26191;SDS011;13935;55.672;37.764;2022-11-10T04:18:58;27.25;;;18.90;;
26191;SDS011;13935;55.672;37.764;2022-11-10T04:20:20;29.88;;;18.85;;
26191;SDS011;13935;55.672;37.764;2022-11-10T04:21:41;27.98;;;18.80;;
26191;SDS011;13935;55.672;37.764;2022-11-10T04:23:02;30.05;;;19.58;;
26191;SDS011;13935;55.672;37.764;2022-11-10T04:24:42;31.48;;;20.70;;
26191;SDS011;13935;55.672;37.764;2022-11-10T04:26:05;32.13;;;20.48;;
26191;SDS011;13935;55.672;37.764;2022-11-10T04:27:46;30.63;;;20.40;;
26191;SDS011;13935;55.672;37.764;2022-11-10T04:29:07;28.95;;;19.70;;
26191;SDS011;13935;55.672;37.764;2022-11-10T04:30:30;31.88;;;20.27;;
26191;SDS011;13935;55.672;37.764;2022-11-10T04:31:51;29.27;;;19.48;;
26191;SDS011;13935;55.672;37.764;2022-11-10T04:33:11;33.75;;;19.95;;
26191;SDS011;13935;55.672;37.764;2022-11-10T04:34:32;31.00;;;19.95;;
26191;SDS011;13935;55.672;37.764;2022-11-10T04:35:53;29.77;;;20.63;;
26191;SDS011;13935;55.672;37.764;2022-11-10T04:37:13;29.20;;;20.48;;
26191;SDS011;13935;55.672;37.764;2022-11-10T04:38:34;30.05;;;19.35;;
26191;SDS011;13935;55.672;37.764;2022-11-10T04:39:55;29.95;;;20.23;;
26191;SDS011;13935;55.672;37.764;2022-11-10T04:41:15;33.70;;;20.40;;
26191;SDS011;13935;55.672;37.764;2022-11-10T04:42:38;30.50;;;21.30;;
26191;SDS011;13935;55.672;37.764;2022-11-10T04:43:59;28.40;;;19.55;;
26191;SDS011;13935;55.672;37.764;2022-11-10T04:45:21;29.10;;;20.15;;
26191;SDS011;13935;55.672;37.764;2022-11-10T04:46:42;30.52;;;20.20;;
26191;SDS011;13935;55.672;37.764;2022-11-10T04:48:07;31.25;;;20.58;;
26191;SDS011;13935;55.672;37.764;2022-11-10T04:49:27;27.65;;;19.88;;
26191;SDS011;13935;55.672;37.764;2022-11-10T04:50:50;28.55;;;19.77;;
26191;SDS011;13935;55.672;37.764;2022-11-10T04:52:13;29.48;;;19.42;;
26191;SDS011;13935;55.672;37.764;2022-11-10T04:53:35;32.35;;;20.40;;
26191;SDS011;13935;55.672;37.764;2022-11-10T04:54:56;31.20;;;20.67;;
26191;SDS011;13935;55.672;37.764;2022-11-10T04:56:17;31.58;;;19.75;;
26191;SDS011;13935;55.672;37.764;2022-11-10T04:57:41;28.60;;;20.02;;
26191;SDS011;13935;55.672;37.764;2022-11-10T04:59:02;29.10;;;19.67;;
26191;SDS011;13935;55.672;37.764;2022-11-10T05:00:23;31.65;;;20.77;;
26191;SDS011;13935;55.672;37.764;2022-11-10T05:01:43;31.60;;;20.67;;
26191;SDS011;13935;55.672;37.764;2022-11-10T05:03:07;29.30;;;19.63;;
26191;SDS011;13935;55.672;37.764;2022-11-10T05:04:30;34.40;;;19.98;;
26191;SDS011;13935;55.672;37.764;2022-11-10T05:05:50;32.28;;;19.98;;
26191;SDS011;13935;55.672;37.764;2022-11-10T05:07:11;31.55;;;19.80;;
26191;SDS011;13935;55.672;37.764;2022-11-10T05:08:33;29.55;;;19.63;;
26191;SDS011;13935;55.672;37.764;2022-11-10T05:09:53;30.13;;;19.52;;
26191;SDS011;13935;55.672;37.764;2022-11-10T05:11:14;29.85;;;19.08;;
26191;SDS011;13935;55.672;37.764;2022-11-10T05:12:35;33.60;;;20.17;;
26191;SDS011;13935;55.672;37.764;2022-11-10T05:13:56;31.05;;;20.27;;
26191;SDS011;13935;55.672;37.764;2022-11-10T05:15:17;30.35;;;19.17;;
26191;SDS011;13935;55.672;37.764;2022-11-10T05:16:38;29.50;;;20.38;;
26191;SDS011;13935;55.672;37.764;2022-11-10T05:17:59;31.33;;;19.58;;
26191;SDS011;13935;55.672;37.764;2022-11-10T05:19:22;32.55;;;20.33;;
26191;SDS011;13935;55.672;37.764;2022-11-10T05:20:43;28.85;;;18.95;;
26191;SDS011;13935;55.672;37.764;2022-11-10T05:22:06;30.85;;;19.63;;
26191;SDS011;13935;55.672;37.764;2022-11-10T05:23:27;34.08;;;19.05;;
26191;SDS011;13935;55.672;37.764;2022-11-10T05:24:57;31.52;;;20.15;;
26191;SDS011;13935;55.672;37.764;2022-11-10T05:26:17;30.77;;;18.90;;
26191;SDS011;13935;55.672;37.764;2022-11-10T05:27:38;29.15;;;18.20;;
26191;SDS011;13935;55.672;37.764;2022-11-10T05:29:00;30.42;;;19.17;;
26191;SDS011;13935;55.672;37.764;2022-11-10T05:30:21;30.60;;;18.70;;
26191;SDS011;13935;55.672;37.764;2022-11-10T05:31:42;29.88;;;18.63;;
26191;SDS011;13935;55.672;37.764;2022-11-10T05:33:08;33.55;;;19.23;;
26191;SDS011;13935;55.672;37.764;2022-11-10T05:34:30;30.98;;;18.73;;
26191;SDS011;13935;55.672;37.764;2022-11-10T05:36:10;32.28;;;18.98;;
26191;SDS011;13935;55.672;37.764;2022-11-10T05:37:31;28.75;;;18.13;;
26191;SDS011;13935;55.672;37.764;2022-11-10T05:38:52;30.90;;;17.70;;
26191;SDS011;13935;55.672;37.764;2022-11-10T05:40:12;31.95;;;18.25;;
26191;SDS011;13935;55.672;37.764;2022-11-10T05:41:39;30.38;;;19.35;;
26191;SDS011;13935;55.672;37.764;2022-11-10T05:43:00;29.02;;;18.42;;
26191;SDS011;13935;55.672;37.764;2022-11-10T05:44:20;26.58;;;17.92;;
26191;SDS011;13935;55.672;37.764;2022-11-10T05:45:41;33.33;;;17.73;;
26191;SDS011;13935;55.672;37.764;2022-11-10T05:47:02;28.27;;;17.08;;
26191;SDS011;13935;55.672;37.764;2022-11-10T05:48:23;31.80;;;18.52;;
26191;SDS011;13935;55.672;37.764;2022-11-10T05:49:48;26.30;;;16.75;;
26191;SDS011;13935;55.672;37.764;2022-11-10T05:51:13;29.42;;;16.90;;
26191;SDS011;13935;55.672;37.764;2022-11-10T05:52:33;25.38;;;16.42;;
26191;SDS011;13935;55.672;37.764;2022-11-10T05:53:55;29.88;;;17.63;;
26191;SDS011;13935;55.672;37.764;2022-11-10T05:55:17;28.48;;;17.73;;
26191;SDS011;13935;55.672;37.764;2022-11-10T05:56:39;28.67;;;17.77;;
26191;SDS011;13935;55.672;37.764;2022-11-10T05:58:00;30.83;;;17.45;;
26191;SDS011;13935;55.672;37.764;2022-11-10T05:59:21;29.17;;;17.10;;
26191;SDS011;13935;55.672;37.764;2022-11-10T06:00:42;31.90;;;16.83;;
26191;SDS011;13935;55.672;37.764;2022-11-10T06:02:04;25.17;;;17.23;;
26191;SDS011;13935;55.672;37.764;2022-11-10T06:03:25;28.20;;;15.63;;
26191;SDS011;13935;55.672;37.764;2022-11-10T06:04:47;28.27;;;17.40;;
26191;SDS011;13935;55.672;37.764;2022-11-10T06:06:07;30.50;;;18.27;;
26191;SDS011;13935;55.672;37.764;2022-11-10T06:07:28;27.67;;;16.95;;
26191;SDS011;13935;55.672;37.764;2022-11-10T06:08:49;30.83;;;17.38;;
26191;SDS011;13935;55.672;37.764;2022-11-10T06:10:10;25.40;;;16.23;;
26191;SDS011;13935;55.672;37.764;2022-11-10T06:11:31;26.50;;;16.17;;
26191;SDS011;13935;55.672;37.764;2022-11-10T06:12:54;28.20;;;16.48;;
26191;SDS011;13935;55.672;37.764;2022-11-10T06:14:16;25.92;;;15.95;;
26191;SDS011;13935;55.672;37.764;2022-11-10T06:15:37;26.45;;;16.85;;
26191;SDS011;13935;55.672;37.764;2022-11-10T06:16:58;25.83;;;15.40;;
26191;SDS011;13935;55.672;37.764;2022-11-10T06:18:19;25.85;;;16.15;;
26191;SDS011;13935;55.672;37.764;2022-11-10T06:19:39;24.83;;;15.02;;
26191;SDS011;13935;55.672;37.764;2022-11-10T06:21:00;24.92;;;16.02;;
26191;SDS011;13935;55.672;37.764;2022-11-10T06:22:21;27.15;;;16.40;;
26191;SDS011;13935;55.672;37.764;2022-11-10T06:23:42;31.88;;;16.10;;
26191;SDS011;13935;55.672;37.764;2022-11-10T06:25:03;26.42;;;15.02;;
26191;SDS011;13935;55.672;37.764;2022-11-10T06:26:26;26.27;;;16.10;;
26191;SDS011;13935;55.672;37.764;2022-11-10T06:27:46;24.38;;;15.35;;
26191;SDS011;13935;55.672;37.764;2022-11-10T06:29:09;32.40;;;17.65;;
26191;SDS011;13935;55.672;37.764;2022-11-10T06:30:34;26.98;;;15.38;;
26191;SDS011;13935;55.672;37.764;2022-11-10T06:31:58;25.65;;;15.25;;
26191;SDS011;13935;55.672;37.764;2022-11-10T06:33:19;24.92;;;14.85;;
26191;SDS011;13935;55.672;37.764;2022-11-10T06:34:42;25.35;;;14.60;;
26191;SDS011;13935;55.672;37.764;2022-11-10T06:36:02;25.02;;;14.90;;
26191;SDS011;13935;55.672;37.764;2022-11-10T06:37:23;25.35;;;15.25;;
26191;SDS011;13935;55.672;37.764;2022-11-10T06:38:48;23.67;;;14.38;;
26191;SDS011;13935;55.672;37.764;2022-11-10T06:40:09;27.65;;;14.85;;
26191;SDS011;13935;55.672;37.764;2022-11-10T06:41:32;23.98;;;14.65;;
26191;SDS011;13935;55.672;37.764;2022-11-10T06:42:53;28.90;;;15.20;;
26191;SDS011;13935;55.672;37.764;2022-11-10T06:44:14;22.70;;;14.25;;
26191;SDS011;13935;55.672;37.764;2022-11-10T06:45:35;24.08;;;13.85;;
26191;SDS011;13935;55.672;37.764;2022-11-10T06:46:55;30.63;;;14.68;;
26191;SDS011;13935;55.672;37.764;2022-11-10T06:48:16;27.50;;;15.07;;
26191;SDS011;13935;55.672;37.764;2022-11-10T06:49:38;24.52;;;14.93;;
26191;SDS011;13935;55.672;37.764;2022-11-10T06:51:00;22.80;;;14.05;;
26191;SDS011;13935;55.672;37.764;2022-11-10T06:52:22;27.10;;;14.98;;
26191;SDS011;13935;55.672;37.764;2022-11-10T06:53:43;29.30;;;15.52;;
26191;SDS011;13935;55.672;37.764;2022-11-10T06:55:04;23.23;;;14.93;;
26191;SDS011;13935;55.672;37.764;2022-11-10T06:56:25;23.50;;;14.40;;
26191;SDS011;13935;55.672;37.764;2022-11-10T06:57:46;21.35;;;14.07;;
26191;SDS011;13935;55.672;37.764;2022-11-10T06:59:07;26.55;;;15.70;;
26191;SDS011;13935;55.672;37.764;2022-11-10T07:00:28;29.25;;;15.73;;
26191;SDS011;13935;55.672;37.764;2022-11-10T07:01:49;25.90;;;14.85;;
26191;SDS011;13935;55.672;37.764;2022-11-10T07:03:12;23.13;;;14.80;;
26191;SDS011;13935;55.672;37.764;2022-11-10T07:04:34;23.95;;;15.18;;
26191;SDS011;13935;55.672;37.764;2022-11-10T07:05:55;29.05;;;16.17;;
26191;SDS011;13935;55.672;37.764;2022-11-10T07:07:17;27.60;;;15.20;;
26191;SDS011;13935;55.672;37.764;2022-11-10T07:08:38;31.77;;;14.68;;
26191;SDS011;13935;55.672;37.764;2022-11-10T07:09:59;23.05;;;14.40;;
26191;SDS011;13935;55.672;37.764;2022-11-10T07:11:26;24.10;;;15.07;;
26191;SDS011;13935;55.672;37.764;2022-11-10T07:12:47;24.75;;;14.60;;
26191;SDS011;13935;55.672;37.764;2022-11-10T07:14:08;27.23;;;15.32;;
26191;SDS011;13935;55.672;37.764;2022-11-10T07:15:30;27.75;;;14.82;;
26191;SDS011;13935;55.672;37.764;2022-11-10T07:16:53;22.52;;;14.23;;
26191;SDS011;13935;55.672;37.764;2022-11-10T07:18:14;26.20;;;15.25;;
26191;SDS011;13935;55.672;37.764;2022-11-10T07:19:34;26.88;;;14.93;;
26191;SDS011;13935;55.672;37.764;2022-11-10T07:20:55;21.98;;;14.77;;
26191;SDS011;13935;55.672;37.764;2022-11-10T07:22:17;23.13;;;14.70;;
26191;SDS011;13935;55.672;37.764;2022-11-10T07:23:37;25.45;;;14.68;;
26191;SDS011;13935;55.672;37.764;2022-11-10T07:24:58;27.27;;;14.52;;
26191;SDS011;13935;55.672;37.764;2022-11-10T07:26:19;23.98;;;14.88;;
26191;SDS011;13935;55.672;37.764;2022-11-10T07:27:40;22.70;;;14.35;;
26191;SDS011;13935;55.672;37.764;2022-11-10T07:29:02;22.95;;;14.20;;
26191;SDS011;13935;55.672;37.764;2022-11-10T07:30:23;22.67;;;13.90;;
26191;SDS011;13935;55.672;37.764;2022-11-10T07:31:44;23.58;;;14.68;;
26191;SDS011;13935;55.672;37.764;2022-11-10T07:33:12;25.05;;;14.82;;
26191;SDS011;13935;55.672;37.764;2022-11-10T07:34:34;24.40;;;15.48;;
26191;SDS011;13935;55.672;37.764;2022-11-10T07:35:55;24.85;;;15.00;;
26191;SDS011;13935;55.672;37.764;2022-11-10T07:37:18;24.52;;;15.20;;
26191;SDS011;13935;55.672;37.764;2022-11-10T07:38:40;25.20;;;14.75;;
26191;SDS011;13935;55.672;37.764;2022-11-10T07:40:01;23.45;;;14.52;;
26191;SDS011;13935;55.672;37.764;2022-11-10T07:41:23;24.88;;;15.15;;
26191;SDS011;13935;55.672;37.764;2022-11-10T07:42:43;26.30;;;14.52;;
26191;SDS011;13935;55.672;37.764;2022-11-10T07:44:05;24.40;;;15.43;;
26191;SDS011;13935;55.672;37.764;2022-11-10T07:45:26;23.65;;;14.52;;
26191;SDS011;13935;55.672;37.764;2022-11-10T07:46:48;27.98;;;14.63;;
26191;SDS011;13935;55.672;37.764;2022-11-10T07:48:09;28.02;;;16.92;;
26191;SDS011;13935;55.672;37.764;2022-11-10T07:49:29;23.30;;;15.18;;
26191;SDS011;13935;55.672;37.764;2022-11-10T07:50:50;20.52;;;14.10;;
26191;SDS011;13935;55.672;37.764;2022-11-10T07:52:11;27.27;;;14.40;;
26191;SDS011;13935;55.672;37.764;2022-11-10T07:53:31;26.95;;;14.75;;
26191;SDS011;13935;55.672;37.764;2022-11-10T07:54:52;23.65;;;15.50;;
26191;SDS011;13935;55.672;37.764;2022-11-10T07:56:13;25.48;;;14.90;;
26191;SDS011;13935;55.672;37.764;2022-11-10T07:57:34;23.52;;;14.40;;
26191;SDS011;13935;55.672;37.764;2022-11-10T07:58:55;30.05;;;16.17;;
26191;SDS011;13935;55.672;37.764;2022-11-10T08:00:15;25.30;;;16.20;;
26191;SDS011;13935;55.672;37.764;2022-11-10T08:01:37;25.67;;;15.40;;